createdAt,value
2022-10-10T00:01:24.358Z,4.30
2022-10-10T00:03:53.255Z,4.60
2022-10-10T00:06:21.470Z,4.40
2022-10-10T00:08:49.614Z,4.63
2022-10-10T00:11:20.319Z,5.00
2022-10-10T00:13:48.976Z,4.40
2022-10-10T00:16:17.358Z,4.63
2022-10-10T00:18:45.325Z,4.73
2022-10-10T00:21:13.148Z,4.80
2022-10-10T00:23:41.090Z,4.70
2022-10-10T00:26:09.791Z,4.63
2022-10-10T00:28:38.811Z,4.43
2022-10-10T00:31:08.813Z,4.10
2022-10-10T00:33:37.705Z,3.83
2022-10-10T00:36:06.043Z,4.27
2022-10-10T00:38:33.727Z,4.63
2022-10-10T00:41:01.469Z,4.07
2022-10-10T00:43:29.805Z,4.20
2022-10-10T00:45:57.558Z,4.57
2022-10-10T00:48:41.408Z,3.93
2022-10-10T00:51:14.651Z,4.83
2022-10-10T00:53:56.337Z,4.73
2022-10-10T00:56:28.593Z,4.27
2022-10-10T00:59:00.368Z,4.20
2022-10-10T01:01:28.372Z,4.70
2022-10-10T01:04:01.221Z,4.33
2022-10-10T01:06:29.478Z,4.13
2022-10-10T01:08:57.439Z,4.13
2022-10-10T01:11:48.095Z,4.50
2022-10-10T01:14:49.842Z,4.50
2022-10-10T01:17:35.031Z,4.30
2022-10-10T01:20:50.564Z,4.53
2022-10-10T01:23:33.687Z,4.23
2022-10-10T01:26:19.438Z,4.63
2022-10-10T01:29:23.203Z,5.20
2022-10-10T01:31:54.697Z,4.70
2022-10-10T01:34:40.874Z,4.40
2022-10-10T01:37:20.519Z,4.53
2022-10-10T01:40:04.479Z,4.63
2022-10-10T01:42:34.847Z,5.00
2022-10-10T01:45:02.236Z,4.60
2022-10-10T01:47:29.736Z,4.30
2022-10-10T01:50:06.817Z,4.63
2022-10-10T01:53:09.655Z,4.50
2022-10-10T01:55:59.969Z,4.27
2022-10-10T01:59:03.537Z,4.67
2022-10-10T02:01:43.583Z,4.00
2022-10-10T02:04:27.689Z,4.23
2022-10-10T02:07:30.921Z,4.13
2022-10-10T02:10:02.050Z,4.17
2022-10-10T02:12:31.187Z,4.13
2022-10-10T02:15:07.489Z,4.10
2022-10-10T02:17:38.235Z,3.83
2022-10-10T02:20:07.702Z,3.93
2022-10-10T02:22:36.995Z,4.60
2022-10-10T02:25:05.384Z,5.07
2022-10-10T02:27:43.638Z,4.60
2022-10-10T02:30:11.975Z,4.33
2022-10-10T02:32:50.702Z,4.20
2022-10-10T02:35:23.904Z,3.90
2022-10-10T02:37:53.007Z,5.10
2022-10-10T02:40:28.231Z,4.00
2022-10-10T02:42:57.226Z,4.33
2022-10-10T02:45:25.696Z,4.70
2022-10-10T02:47:54.539Z,4.00
2022-10-10T02:50:23.150Z,4.43
2022-10-10T02:52:51.164Z,4.53
2022-10-10T02:55:18.678Z,3.90
2022-10-10T02:57:46.002Z,3.90
2022-10-10T03:00:14.824Z,4.07
2022-10-10T03:02:42.531Z,4.13
2022-10-10T03:05:10.435Z,3.70
2022-10-10T03:07:38.002Z,4.17
2022-10-10T03:10:07.513Z,3.90
2022-10-10T03:12:35.666Z,4.13
2022-10-10T03:15:06.909Z,4.10
2022-10-10T03:17:37.874Z,4.63
2022-10-10T03:20:06.025Z,3.97
2022-10-10T03:22:33.459Z,3.90
2022-10-10T03:25:00.769Z,3.47
2022-10-10T03:27:28.164Z,4.07
2022-10-10T03:29:55.564Z,3.70
2022-10-10T03:32:22.930Z,3.67
2022-10-10T03:34:50.396Z,3.83
2022-10-10T03:37:17.783Z,4.07
2022-10-10T03:39:45.161Z,3.90
2022-10-10T03:42:12.518Z,4.20
2022-10-10T03:44:39.837Z,3.70
2022-10-10T03:47:07.442Z,4.50
2022-10-10T03:49:35.210Z,4.53
2022-10-10T03:52:02.554Z,3.90
2022-10-10T03:54:29.915Z,3.60
2022-10-10T03:56:57.250Z,4.07
2022-10-10T03:59:24.707Z,4.07
2022-10-10T04:01:52.002Z,3.57
2022-10-10T04:04:19.340Z,4.10
2022-10-10T04:06:46.931Z,3.60
2022-10-10T04:09:14.256Z,4.03
2022-10-10T04:11:41.691Z,3.77
2022-10-10T04:14:09.091Z,3.87
2022-10-10T04:16:36.458Z,4.17
2022-10-10T04:19:03.744Z,4.33
2022-10-10T04:21:31.037Z,5.03
2022-10-10T04:23:58.681Z,4.80
2022-10-10T04:26:26.150Z,4.70
2022-10-10T04:28:53.441Z,4.73
2022-10-10T04:31:21.267Z,4.90
2022-10-10T04:33:48.589Z,4.50
2022-10-10T04:36:16.049Z,4.60
2022-10-10T04:38:43.655Z,4.53
2022-10-10T04:41:11.326Z,4.57
2022-10-10T04:43:38.707Z,5.00
2022-10-10T04:46:06.173Z,4.50
2022-10-10T04:48:34.073Z,4.60
2022-10-10T04:51:01.397Z,4.10
2022-10-10T04:53:28.698Z,4.80
2022-10-10T04:55:55.983Z,4.77
2022-10-10T04:58:23.426Z,4.87
2022-10-10T05:00:54.969Z,4.87
2022-10-10T05:03:25.996Z,4.67
2022-10-10T05:05:53.706Z,4.47
2022-10-10T05:08:21.262Z,4.20
2022-10-10T05:10:48.651Z,4.63
2022-10-10T05:13:16.613Z,4.97
2022-10-10T05:15:44.857Z,7.20
2022-10-10T05:18:12.447Z,15.73
2022-10-10T05:20:41.611Z,9.77
2022-10-10T05:23:09.058Z,7.13
2022-10-10T05:25:36.362Z,5.97
2022-10-10T05:28:03.633Z,5.60
2022-10-10T05:30:30.921Z,4.60
2022-10-10T05:32:58.397Z,4.73
2022-10-10T05:35:25.698Z,5.00
2022-10-10T05:37:53.164Z,5.63
2022-10-10T05:40:20.605Z,5.03
2022-10-10T05:42:48.147Z,5.07
2022-10-10T05:45:15.670Z,5.27
2022-10-10T05:47:42.949Z,4.63
2022-10-10T05:50:33.747Z,5.00
2022-10-10T05:53:01.236Z,5.77
2022-10-10T05:55:28.603Z,7.67
2022-10-10T06:51:44.865Z,8.37
2022-10-10T06:54:52.550Z,7.63
2022-10-10T06:57:20.751Z,7.23
2022-10-10T07:03:02.863Z,7.97
2022-10-10T07:15:07.521Z,6.97
2022-10-10T07:17:35.189Z,5.97
2022-10-10T08:16:50.063Z,7.07
2022-10-10T08:19:17.973Z,7.87
2022-10-10T08:21:45.582Z,9.57
2022-10-10T08:37:03.904Z,9.50
2022-10-10T08:39:32.301Z,9.23
2022-10-10T08:42:02.561Z,9.13
2022-10-10T08:44:59.196Z,9.20
2022-10-10T09:02:50.089Z,7.37
2022-10-10T09:15:06.893Z,7.60
2022-10-10T09:17:52.890Z,7.27
2022-10-10T09:20:55.879Z,8.77
2022-10-10T09:23:40.905Z,8.10
2022-10-10T09:26:11.830Z,8.60
2022-10-10T09:29:03.175Z,7.73
2022-10-10T09:31:39.881Z,7.53
2022-10-10T09:34:30.775Z,7.97
2022-10-10T09:37:02.184Z,7.50
2022-10-10T09:39:43.906Z,6.83
2022-10-10T09:42:13.762Z,7.00
2022-10-10T09:44:43.209Z,6.33
2022-10-10T09:47:14.035Z,6.47
2022-10-10T09:49:42.962Z,6.23
2022-10-10T09:52:24.330Z,6.57
2022-10-10T09:55:05.561Z,7.13
2022-10-10T09:57:39.039Z,6.27
2022-10-10T10:00:27.560Z,6.90
2022-10-10T10:03:10.246Z,6.70
2022-10-10T10:05:37.955Z,6.50
2022-10-10T10:08:06.014Z,6.87
2022-10-10T10:10:35.521Z,5.83
2022-10-10T10:13:02.951Z,6.13
2022-10-10T10:15:32.110Z,6.77
2022-10-10T10:18:19.326Z,5.90
2022-10-10T10:20:49.983Z,5.73
2022-10-10T10:23:31.094Z,6.27
2022-10-10T10:26:06.529Z,5.67
2022-10-10T10:28:41.089Z,5.90
2022-10-10T10:31:30.964Z,6.07
2022-10-10T10:34:28.941Z,6.10
2022-10-10T10:37:17.367Z,6.00
2022-10-10T10:39:57.603Z,6.03
2022-10-10T10:42:54.605Z,6.67
2022-10-10T10:45:37.198Z,6.23
2022-10-10T10:48:44.689Z,6.57
2022-10-10T10:51:34.298Z,6.90
2022-10-10T10:54:13.690Z,6.73
2022-10-10T10:57:11.284Z,7.77
2022-10-10T11:00:25.737Z,7.87
2022-10-10T11:05:16.629Z,6.77
2022-10-10T11:07:13.736Z,7.03
2022-10-10T11:09:50.385Z,6.40
2022-10-10T11:12:47.811Z,6.07
2022-10-10T11:16:05.455Z,6.43
2022-10-10T11:18:41.296Z,6.00
2022-10-10T11:21:14.869Z,6.60
2022-10-10T11:23:57.610Z,6.23
2022-10-10T11:26:31.710Z,6.90
2022-10-10T11:29:24.411Z,6.23
2022-10-10T11:31:55.637Z,6.50
2022-10-10T11:34:38.325Z,5.77
2022-10-10T11:37:14.098Z,6.73
2022-10-10T11:39:55.750Z,6.27
2022-10-10T11:42:45.957Z,6.33
2022-10-10T11:45:25.810Z,6.73
2022-10-10T11:47:57.068Z,6.80
2022-10-10T11:50:29.361Z,6.80
2022-10-10T11:53:12.952Z,6.57
2022-10-10T11:55:47.485Z,6.00
2022-10-10T11:58:33.122Z,6.40
2022-10-10T12:01:25.545Z,6.33
2022-10-10T12:03:53.258Z,5.83
2022-10-10T12:06:34.236Z,6.13
2022-10-10T12:09:23.613Z,5.77
2022-10-10T12:11:58.201Z,6.30
2022-10-10T12:14:30.066Z,6.60
2022-10-10T12:16:58.537Z,7.73
2022-10-10T12:19:28.585Z,7.10
2022-10-10T12:22:12.057Z,6.23
2022-10-10T12:25:08.797Z,6.27
2022-10-10T12:27:47.920Z,6.37
2022-10-10T12:30:19.193Z,7.00
2022-10-10T12:32:47.869Z,6.33
2022-10-10T12:35:27.527Z,6.10
2022-10-10T12:38:21.591Z,6.33
2022-10-10T12:40:58.275Z,6.10
2022-10-10T12:43:45.528Z,5.70
2022-10-10T12:46:32.906Z,5.97
2022-10-10T12:49:25.558Z,5.67
2022-10-10T12:52:11.781Z,6.10
2022-10-10T12:54:43.422Z,5.93
2022-10-10T12:57:32.222Z,6.13
2022-10-10T13:00:15.358Z,5.87
2022-10-10T13:02:48.086Z,5.90
2022-10-10T13:05:19.916Z,5.60
2022-10-10T13:07:49.712Z,6.17
2022-10-10T13:10:24.859Z,5.40
2022-10-10T13:13:18.567Z,5.67
2022-10-10T13:16:04.583Z,5.90
2022-10-10T13:18:44.094Z,5.77
2022-10-10T13:36:57.893Z,5.17
2022-10-10T13:39:26.597Z,5.70
2022-10-10T13:41:55.875Z,5.27
2022-10-10T13:44:30.445Z,5.00
2022-10-10T13:46:58.378Z,5.10
2022-10-10T13:49:30.106Z,5.00
2022-10-10T13:52:28.500Z,5.10
2022-10-10T13:55:25.098Z,4.67
2022-10-10T13:58:01.480Z,4.90
2022-10-10T14:00:33.551Z,5.43
2022-10-10T14:03:01.042Z,5.10
2022-10-10T14:05:31.489Z,5.20
2022-10-10T14:07:59.603Z,4.87
2022-10-10T14:10:33.666Z,4.33
2022-10-10T14:13:01.362Z,4.77
2022-10-10T14:15:37.082Z,4.93
2022-10-10T14:18:19.493Z,4.97
2022-10-10T14:20:48.240Z,4.43
2022-10-10T14:23:17.178Z,4.37
2022-10-10T14:25:47.913Z,5.17
2022-10-10T14:28:25.333Z,5.50
2022-10-10T14:30:55.131Z,4.60
2022-10-10T14:33:22.749Z,4.73
2022-10-10T14:35:51.730Z,5.10
2022-10-10T14:38:19.216Z,4.67
2022-10-10T14:40:49.362Z,5.33
2022-10-10T14:43:18.347Z,5.40
2022-10-10T14:45:46.074Z,5.10
2022-10-10T14:48:13.357Z,4.60
2022-10-10T14:50:44.262Z,5.03
2022-10-10T14:53:12.138Z,5.07
2022-10-10T14:55:43.552Z,5.10
2022-10-10T14:58:20.143Z,5.30
2022-10-10T15:00:48.285Z,5.50
2022-10-10T15:03:15.951Z,5.40
2022-10-10T15:05:43.533Z,6.07
2022-10-10T15:08:14.380Z,5.70
2022-10-10T15:10:42.918Z,5.50
2022-10-10T15:13:12.211Z,5.20
2022-10-10T15:15:39.767Z,6.17
2022-10-10T15:18:26.697Z,5.63
2022-10-10T15:20:55.389Z,5.40
2022-10-10T15:23:22.725Z,5.60
2022-10-10T15:25:50.133Z,5.23
2022-10-10T15:28:17.595Z,5.10
2022-10-10T15:30:45.986Z,5.23
2022-10-10T15:33:13.287Z,5.43
2022-10-10T15:36:07.423Z,4.90
2022-10-10T15:38:29.633Z,5.10
2022-10-10T15:41:02.820Z,5.03
2022-10-10T15:43:30.750Z,5.17
2022-10-10T15:46:00.829Z,5.70
2022-10-10T15:48:28.286Z,5.57
2022-10-10T15:50:56.018Z,5.63
2022-10-10T15:53:24.789Z,4.97
2022-10-10T15:55:52.154Z,5.33
2022-10-10T15:58:19.558Z,5.50
2022-10-10T16:00:46.883Z,4.80
2022-10-10T16:03:14.471Z,5.00
2022-10-10T16:05:50.721Z,4.90
2022-10-10T16:08:20.056Z,5.27
2022-10-10T16:19:50.648Z,5.40
2022-10-10T16:22:17.895Z,5.47
2022-10-10T16:24:58.290Z,5.40
2022-10-10T16:27:34.778Z,5.77
2022-10-10T16:30:02.132Z,5.77
2022-10-10T16:32:29.510Z,6.17
2022-10-10T16:34:56.711Z,5.80
2022-10-10T16:37:23.974Z,5.50
2022-10-10T16:39:51.330Z,5.23
2022-10-10T16:42:18.706Z,5.43
2022-10-10T16:44:46.092Z,5.90
2022-10-10T16:47:14.514Z,8.40
2022-10-10T16:49:41.807Z,8.70
2022-10-10T16:52:09.139Z,8.70
2022-10-10T16:54:36.821Z,8.60
2022-10-10T16:57:04.144Z,8.47
2022-10-10T16:59:32.389Z,8.97
2022-10-10T17:01:59.675Z,9.20
2022-10-10T17:04:27.058Z,9.57
2022-10-10T17:06:54.479Z,8.60
2022-10-10T17:09:22.827Z,8.73
2022-10-10T17:11:51.491Z,9.63
2022-10-10T17:14:19.395Z,10.83
2022-10-10T17:17:10.941Z,10.30
2022-10-10T17:19:34.319Z,9.53
2022-10-10T17:22:01.624Z,10.10
2022-10-10T17:24:28.940Z,9.53
2022-10-10T17:26:56.251Z,9.50
2022-10-10T17:29:23.651Z,9.20
2022-10-10T17:31:50.993Z,9.00
2022-10-10T17:34:18.366Z,8.93
2022-10-10T17:36:45.724Z,9.63
2022-10-10T17:39:13.056Z,10.13
2022-10-10T17:41:40.718Z,9.00
2022-10-10T17:44:10.854Z,8.67
2022-10-10T17:46:39.010Z,7.27
2022-10-10T17:49:08.660Z,7.73
2022-10-10T17:51:37.545Z,7.30
2022-10-10T17:54:06.548Z,7.77
2022-10-10T17:56:35.410Z,6.47
2022-10-10T17:59:06.369Z,7.53
2022-10-10T18:01:35.393Z,7.23
2022-10-10T18:04:02.917Z,7.30
2022-10-10T18:06:35.906Z,6.57
2022-10-10T18:09:03.512Z,6.57
2022-10-10T18:11:31.889Z,7.83
2022-10-10T18:14:02.264Z,7.70
2022-10-10T18:16:35.502Z,7.60
2022-10-10T18:19:07.430Z,7.47
2022-10-10T18:21:35.127Z,7.43
2022-10-10T18:24:02.894Z,7.57
2022-10-10T18:26:30.893Z,7.50
2022-10-10T18:28:59.166Z,7.97
2022-10-10T18:31:30.159Z,7.60
2022-10-10T18:33:57.734Z,6.97
2022-10-10T18:36:27.403Z,7.73
2022-10-10T18:38:58.414Z,8.20
2022-10-10T18:41:32.695Z,7.50
2022-10-10T18:44:04.260Z,6.90
2022-10-10T18:46:32.175Z,6.43
2022-10-10T18:49:01.117Z,6.30
2022-10-10T18:51:29.674Z,6.23
2022-10-10T18:54:03.976Z,6.57
2022-10-10T18:56:32.982Z,5.83
2022-10-10T18:59:03.318Z,5.70
2022-10-10T19:01:36.272Z,5.90
2022-10-10T19:04:06.473Z,6.20
2022-10-10T19:06:35.366Z,5.03
2022-10-10T19:09:05.225Z,5.47
2022-10-10T19:11:34.786Z,5.27
2022-10-10T19:14:04.652Z,5.47
2022-10-10T19:16:33.734Z,5.87
2022-10-10T19:19:03.797Z,5.60
2022-10-10T19:21:35.307Z,5.27
2022-10-10T19:24:06.098Z,4.97
2022-10-10T19:26:34.079Z,5.20
2022-10-10T19:29:07.346Z,5.07
2022-10-10T19:31:36.169Z,5.07
2022-10-10T19:34:04.313Z,5.13
2022-10-10T19:36:31.676Z,4.70
2022-10-10T19:38:59.967Z,5.23
2022-10-10T19:41:27.596Z,5.63
2022-10-10T19:43:57.417Z,5.60
2022-10-10T19:46:26.886Z,5.47
2022-10-10T19:48:57.939Z,5.97
2022-10-10T19:51:27.180Z,5.83
2022-10-10T19:53:54.812Z,5.43
2022-10-10T19:56:26.828Z,6.37
2022-10-10T19:58:59.666Z,7.33
2022-10-10T20:01:29.919Z,5.90
2022-10-10T20:03:58.659Z,5.90
2022-10-10T20:06:27.454Z,5.77
2022-10-10T20:08:55.131Z,6.03
2022-10-10T20:11:23.578Z,6.67
2022-10-10T20:13:55.426Z,6.40
2022-10-10T20:16:23.890Z,6.13
2022-10-10T20:18:53.194Z,6.27
2022-10-10T20:21:25.266Z,6.70
2022-10-10T20:23:52.846Z,5.70
2022-10-10T20:26:22.148Z,5.90
2022-10-10T20:28:51.144Z,5.77
2022-10-10T20:31:20.105Z,6.17
2022-10-10T20:33:53.112Z,5.60
2022-10-10T20:36:21.794Z,6.50
2022-10-10T20:38:53.813Z,5.90
2022-10-10T20:41:23.134Z,6.27
2022-10-10T20:43:50.689Z,6.13
2022-10-10T20:46:18.001Z,6.60
2022-10-10T20:48:45.390Z,6.40
2022-10-10T20:51:14.001Z,6.33
2022-10-10T20:53:44.245Z,22.87
2022-10-10T20:56:12.815Z,9.67
2022-10-10T20:58:40.917Z,8.47
2022-10-10T21:01:17.451Z,9.57
2022-10-10T21:03:46.326Z,8.17
2022-10-10T21:06:17.588Z,7.17
2022-10-10T21:08:45.891Z,6.77
2022-10-10T21:11:15.507Z,7.70
2022-10-10T21:13:56.027Z,7.73
2022-10-10T21:16:38.534Z,8.63
2022-10-10T21:19:09.187Z,8.07
2022-10-10T21:21:37.650Z,7.60
2022-10-10T21:24:07.885Z,7.90
2022-10-10T21:26:35.649Z,9.40
2022-10-10T21:29:03.920Z,9.10
2022-10-10T21:31:34.254Z,8.43
2022-10-10T21:34:04.953Z,9.33
2022-10-10T21:36:33.462Z,10.77
2022-10-10T21:39:01.673Z,9.87
2022-10-10T21:41:29.104Z,9.67
2022-10-10T21:43:58.137Z,16.10
2022-10-10T21:46:29.159Z,14.77
2022-10-10T21:49:02.065Z,14.47
2022-10-10T21:51:30.202Z,15.07
2022-10-10T21:53:58.766Z,13.70
2022-10-10T21:56:26.193Z,13.60
2022-10-10T21:58:58.727Z,11.87
2022-10-10T22:01:33.061Z,10.53
2022-10-10T22:04:02.008Z,11.43
2022-10-10T22:06:30.027Z,9.60
2022-10-10T22:08:59.623Z,8.63
2022-10-10T22:11:28.947Z,9.40
2022-10-10T22:13:56.624Z,10.67
2022-10-10T22:16:24.481Z,7.50
2022-10-10T22:18:56.217Z,9.40
2022-10-10T22:21:28.042Z,10.07
2022-10-10T22:23:59.453Z,9.60
2022-10-10T22:26:26.753Z,9.63
2022-10-10T22:28:54.096Z,9.00
2022-10-10T22:31:21.509Z,8.93
2022-10-10T22:33:49.097Z,7.53
2022-10-10T22:36:16.382Z,7.60
2022-10-10T22:38:45.246Z,7.73
2022-10-10T22:41:14.170Z,7.27
2022-10-10T22:43:41.519Z,7.40
2022-10-10T22:46:09.164Z,7.23
2022-10-10T22:48:37.048Z,7.73
2022-10-10T22:51:11.266Z,7.77
2022-10-10T22:53:40.003Z,8.07
2022-10-10T22:56:08.461Z,7.87
2022-10-10T22:58:36.756Z,17.13
2022-10-10T23:01:13.226Z,8.47
2022-10-10T23:03:40.814Z,9.00
2022-10-10T23:06:09.346Z,9.67
2022-10-10T23:08:37.975Z,9.30
2022-10-10T23:11:06.679Z,9.93
2022-10-10T23:13:34.535Z,8.27
2022-10-10T23:16:02.299Z,8.13
2022-10-10T23:18:30.319Z,9.33
2022-10-10T23:20:59.217Z,7.50
2022-10-10T23:23:26.695Z,7.73
2022-10-10T23:25:54.893Z,7.90
2022-10-10T23:28:23.462Z,7.80
2022-10-10T23:30:50.886Z,7.20
2022-10-10T23:33:18.249Z,8.17
2022-10-10T23:35:57.296Z,7.23
2022-10-10T23:38:25.455Z,8.13
2022-10-10T23:40:53.207Z,8.20
2022-10-10T23:43:20.542Z,7.97
2022-10-10T23:45:48.336Z,7.87
2022-10-10T23:48:17.217Z,7.50
2022-10-10T23:50:45.089Z,7.50
2022-10-10T23:53:12.843Z,7.80
2022-10-10T23:55:41.609Z,7.37
2022-10-10T23:58:09.418Z,7.30
